createdAt,value
2018-12-13T00:00:17.953Z,98.62
2018-12-13T00:02:46.438Z,125.95
2018-12-13T00:05:14.964Z,111.68
2018-12-13T00:07:43.456Z,101.10
2018-12-13T00:10:11.982Z,139.65
2018-12-13T00:12:40.507Z,97.30
2018-12-13T00:15:09.150Z,93.90
2018-12-13T00:17:37.674Z,87.95
2018-12-13T00:20:06.408Z,88.75
2018-12-13T00:22:34.930Z,100.53
2018-12-13T00:25:03.468Z,87.25
2018-12-13T00:27:31.966Z,97.25
2018-12-13T00:30:00.475Z,89.42
2018-12-13T00:32:29.008Z,93.90
2018-12-13T00:34:57.540Z,82.75
2018-12-13T00:37:26.040Z,95.12
2018-12-13T00:39:54.564Z,96.45
2018-12-13T00:42:23.092Z,104.85
2018-12-13T00:44:51.604Z,99.77
2018-12-13T00:47:20.137Z,287.12
2018-12-13T00:49:48.706Z,121.57
2018-12-13T00:52:17.211Z,111.90
2018-12-13T00:54:45.713Z,142.40
2018-12-13T00:57:14.247Z,149.70
2018-12-13T00:59:42.780Z,105.65
2018-12-13T01:02:11.320Z,117.80
2018-12-13T01:04:39.850Z,311.57
2018-12-13T01:07:08.385Z,156.95
2018-12-13T01:09:36.895Z,187.92
2018-12-13T01:12:05.428Z,236.07
2018-12-13T01:14:33.940Z,259.07
2018-12-13T01:17:02.754Z,241.33
2018-12-13T01:19:31.285Z,336.10
2018-12-13T01:21:59.963Z,273.38
2018-12-13T01:24:28.484Z,307.55
2018-12-13T01:26:57.024Z,235.02
2018-12-13T01:29:26.198Z,344.70
2018-12-13T01:31:54.750Z,321.37
2018-12-13T01:34:23.274Z,96.50
2018-12-13T01:36:52.521Z,281.65
2018-12-13T01:39:21.271Z,178.27
2018-12-13T01:41:49.811Z,113.50
2018-12-13T01:44:18.331Z,91.28
2018-12-13T01:46:46.879Z,97.10
2018-12-13T01:49:15.374Z,190.60
2018-12-13T01:51:43.942Z,103.47
2018-12-13T01:54:12.447Z,83.52
2018-12-13T01:56:40.958Z,87.62
2018-12-13T01:59:09.473Z,80.25
2018-12-13T02:01:37.983Z,80.05
2018-12-13T02:04:06.491Z,87.72
2018-12-13T02:06:35.011Z,139.15
2018-12-13T02:09:04.920Z,129.30
2018-12-13T02:11:33.430Z,92.42
2018-12-13T02:14:01.961Z,157.20
2018-12-13T02:16:30.490Z,176.40
2018-12-13T02:18:59.051Z,102.95
2018-12-13T02:21:27.706Z,73.72
2018-12-13T02:23:56.231Z,72.82
2018-12-13T02:26:24.779Z,82.47
2018-12-13T02:28:53.299Z,77.08
2018-12-13T02:31:21.799Z,76.62
2018-12-13T02:33:50.337Z,71.12
2018-12-13T02:36:18.850Z,104.17
2018-12-13T02:38:47.344Z,123.72
2018-12-13T02:41:15.840Z,78.12
2018-12-13T02:43:44.362Z,88.60
2018-12-13T02:46:12.890Z,238.52
2018-12-13T02:48:41.404Z,115.77
2018-12-13T02:51:09.972Z,72.55
2018-12-13T02:53:38.497Z,79.80
2018-12-13T02:56:07.035Z,105.63
2018-12-13T02:58:35.661Z,63.40
2018-12-13T03:01:04.323Z,65.30
2018-12-13T03:03:32.821Z,77.00
2018-12-13T03:06:01.459Z,87.57
2018-12-13T03:08:29.975Z,95.85
2018-12-13T03:10:58.482Z,86.72
2018-12-13T03:13:27.388Z,69.77
2018-12-13T03:15:55.915Z,64.82
2018-12-13T03:18:24.430Z,95.17
2018-12-13T03:20:52.952Z,68.87
2018-12-13T03:23:21.475Z,93.85
2018-12-13T03:25:50.011Z,121.17
2018-12-13T03:28:18.545Z,84.35
2018-12-13T03:30:47.092Z,106.43
2018-12-13T03:33:15.612Z,102.20
2018-12-13T03:35:44.121Z,89.72
2018-12-13T03:38:12.650Z,69.42
2018-12-13T03:40:41.162Z,67.53
2018-12-13T03:43:09.693Z,69.42
2018-12-13T03:45:38.226Z,74.20
2018-12-13T03:48:06.772Z,77.10
2018-12-13T03:50:35.281Z,118.15
2018-12-13T03:53:03.839Z,124.87
2018-12-13T03:55:32.376Z,117.28
2018-12-13T03:58:00.973Z,185.07
2018-12-13T04:00:29.486Z,77.87
2018-12-13T04:02:58.001Z,116.45
2018-12-13T04:05:26.513Z,117.30
2018-12-13T04:07:55.044Z,121.22
2018-12-13T04:10:23.763Z,100.42
2018-12-13T04:12:52.296Z,211.52
2018-12-13T04:15:20.811Z,152.57
2018-12-13T04:17:49.306Z,98.58
2018-12-13T04:20:17.818Z,82.53
2018-12-13T04:22:46.363Z,92.62
2018-12-13T04:25:14.909Z,165.88
2018-12-13T04:27:43.435Z,254.43
2018-12-13T04:30:11.949Z,111.75
2018-12-13T04:32:40.466Z,168.05
2018-12-13T04:35:09.013Z,125.15
2018-12-13T04:37:37.578Z,133.07
2018-12-13T04:40:06.241Z,89.58
2018-12-13T04:42:34.760Z,209.87
2018-12-13T04:45:03.299Z,116.82
2018-12-13T04:47:31.822Z,148.32
2018-12-13T04:50:00.333Z,138.92
2018-12-13T04:52:28.839Z,91.25
2018-12-13T04:54:57.373Z,98.65
2018-12-13T04:57:25.906Z,109.65
2018-12-13T04:59:54.445Z,93.55
2018-12-13T05:02:22.959Z,93.27
2018-12-13T05:04:51.516Z,101.82
2018-12-13T05:07:20.035Z,93.75
2018-12-13T05:09:48.564Z,102.10
2018-12-13T05:12:17.115Z,103.55
2018-12-13T05:14:45.648Z,104.50
2018-12-13T05:17:14.172Z,150.27
2018-12-13T05:19:42.742Z,101.38
2018-12-13T05:22:11.281Z,105.10
2018-12-13T05:24:39.805Z,106.85
2018-12-13T05:27:08.335Z,114.70
2018-12-13T05:29:37.259Z,108.92
2018-12-13T05:32:05.760Z,124.95
2018-12-13T05:34:34.296Z,135.32
2018-12-13T05:37:02.829Z,119.05
2018-12-13T05:39:31.358Z,124.80
2018-12-13T05:41:59.889Z,106.32
2018-12-13T05:44:28.430Z,98.87
2018-12-13T05:46:56.973Z,107.05
2018-12-13T05:49:25.494Z,105.72
2018-12-13T05:51:54.009Z,104.78
2018-12-13T05:54:22.545Z,112.80
2018-12-13T05:56:51.077Z,112.45
2018-12-13T05:59:19.600Z,121.75
2018-12-13T06:01:48.671Z,108.65
2018-12-13T06:04:17.240Z,111.92
2018-12-13T06:06:45.751Z,126.10
2018-12-13T06:09:14.315Z,117.75
2018-12-13T06:11:42.816Z,131.97
2018-12-13T06:14:11.383Z,114.57
2018-12-13T06:16:40.014Z,130.87
2018-12-13T06:19:08.543Z,125.82
2018-12-13T06:21:37.223Z,105.52
2018-12-13T06:24:05.856Z,237.50
2018-12-13T06:26:34.375Z,150.90
2018-12-13T06:29:02.934Z,116.12
2018-12-13T06:31:31.483Z,166.55
2018-12-13T06:34:00.018Z,190.68
2018-12-13T06:36:28.687Z,171.45
2018-12-13T06:38:57.211Z,430.27
2018-12-13T06:41:25.761Z,306.65
2018-12-13T06:43:54.273Z,162.37
2018-12-13T06:46:22.809Z,157.93
2018-12-13T06:48:51.374Z,162.68
2018-12-13T06:51:20.215Z,140.92
2018-12-13T06:53:48.863Z,182.70
2018-12-13T06:56:17.370Z,130.35
2018-12-13T06:58:45.944Z,132.30
2018-12-13T07:01:14.481Z,169.65
2018-12-13T07:03:43.034Z,135.57
2018-12-13T07:06:11.558Z,123.82
2018-12-13T07:08:40.076Z,121.92
2018-12-13T07:11:08.595Z,157.62
2018-12-13T07:13:37.111Z,164.10
2018-12-13T07:16:05.642Z,171.10
2018-12-13T07:18:34.177Z,150.20
2018-12-13T07:21:02.729Z,167.87
2018-12-13T07:23:31.253Z,189.52
2018-12-13T07:25:59.826Z,148.53
2018-12-13T07:28:29.046Z,137.22
2018-12-13T07:30:57.874Z,150.78
2018-12-13T07:33:26.423Z,132.25
2018-12-13T07:35:54.950Z,185.52
2018-12-13T07:38:23.479Z,148.47
2018-12-13T07:40:52.801Z,143.80
2018-12-13T07:43:22.797Z,189.45
2018-12-13T07:45:51.409Z,123.65
2018-12-13T07:48:19.937Z,181.45
2018-12-13T07:50:48.517Z,213.25
2018-12-13T07:53:19.607Z,101.55
2018-12-13T07:55:48.210Z,121.35
2018-12-13T07:58:16.758Z,142.72
2018-12-13T08:00:45.286Z,497.15
2018-12-13T08:03:13.946Z,288.57
2018-12-13T08:05:42.479Z,155.75
2018-12-13T08:08:10.997Z,172.53
2018-12-13T08:10:39.528Z,182.65
2018-12-13T08:13:08.017Z,119.25
2018-12-13T08:15:36.556Z,122.67
2018-12-13T08:18:05.096Z,197.62
2018-12-13T08:20:33.614Z,342.75
2018-12-13T08:23:02.157Z,136.52
2018-12-13T08:25:30.674Z,156.37
2018-12-13T08:27:59.159Z,112.08
2018-12-13T08:30:27.628Z,124.55
2018-12-13T08:32:56.111Z,193.85
2018-12-13T08:35:24.638Z,386.95
2018-12-13T08:37:53.175Z,163.35
2018-12-13T08:40:21.683Z,124.50
2018-12-13T08:42:50.171Z,135.35
2018-12-13T08:45:18.692Z,364.77
2018-12-13T08:47:47.238Z,126.65
2018-12-13T08:50:15.739Z,240.15
2018-12-13T08:52:44.213Z,248.32
2018-12-13T08:55:12.714Z,282.77
2018-12-13T08:57:41.193Z,160.85
2018-12-13T09:00:09.919Z,235.02
2018-12-13T09:02:38.406Z,107.87
2018-12-13T09:05:07.185Z,108.90
2018-12-13T09:07:35.781Z,136.77
2018-12-13T09:10:05.301Z,125.02
2018-12-13T09:12:33.885Z,187.77
2018-12-13T09:15:02.489Z,132.70
2018-12-13T09:17:31.132Z,122.78
2018-12-13T09:19:59.720Z,110.57
2018-12-13T09:22:28.342Z,231.70
2018-12-13T09:24:56.937Z,132.05
2018-12-13T09:27:26.418Z,117.20
2018-12-13T09:29:54.995Z,124.07
2018-12-13T09:32:23.672Z,117.65
2018-12-13T09:34:52.264Z,118.93
2018-12-13T09:37:20.861Z,140.60
2018-12-13T09:39:49.480Z,148.72
2018-12-13T09:42:18.123Z,128.80
2018-12-13T09:44:46.791Z,138.55
2018-12-13T09:47:15.511Z,179.78
2018-12-13T09:49:44.214Z,150.85
2018-12-13T09:52:12.870Z,123.92
2018-12-13T09:54:41.539Z,130.18
2018-12-13T09:57:10.163Z,157.35
2018-12-13T09:59:38.805Z,163.65
2018-12-13T10:02:07.414Z,176.85
2018-12-13T10:04:36.097Z,105.15
2018-12-13T10:07:04.718Z,113.22
2018-12-13T10:09:33.322Z,96.45
2018-12-13T10:12:01.982Z,97.97
2018-12-13T10:14:30.573Z,107.92
2018-12-13T10:16:59.175Z,109.20
2018-12-13T10:19:27.947Z,123.85
2018-12-13T10:21:56.572Z,111.25
2018-12-13T10:24:25.176Z,135.72
2018-12-13T10:26:53.758Z,146.28
2018-12-13T10:29:22.339Z,125.22
2018-12-13T10:31:50.947Z,119.87
2018-12-13T10:34:19.555Z,124.82
2018-12-13T10:36:48.151Z,122.15
2018-12-13T10:39:16.726Z,107.65
2018-12-13T10:41:45.459Z,111.22
2018-12-13T10:44:14.133Z,113.50
2018-12-13T10:46:42.728Z,126.05
2018-12-13T10:49:11.342Z,100.95
2018-12-13T10:51:39.963Z,112.62
2018-12-13T10:54:08.657Z,97.27
2018-12-13T10:56:37.275Z,91.82
2018-12-13T10:59:05.892Z,87.53
2018-12-13T11:01:41.066Z,92.12
2018-12-13T11:04:09.679Z,80.15
2018-12-13T11:06:38.319Z,75.35
2018-12-13T11:09:07.199Z,77.78
2018-12-13T11:11:35.803Z,72.67
2018-12-13T11:14:04.410Z,77.03
2018-12-13T11:16:33.010Z,71.85
2018-12-13T11:19:01.632Z,60.92
2018-12-13T11:21:30.251Z,68.37
2018-12-13T11:23:58.907Z,68.05
2018-12-13T11:26:27.596Z,60.80
2018-12-13T11:29:34.715Z,64.42
2018-12-13T11:32:03.705Z,71.22
2018-12-13T11:34:32.297Z,71.33
2018-12-13T11:37:00.902Z,80.67
2018-12-13T11:39:29.538Z,80.60
2018-12-13T11:41:58.130Z,70.25
2018-12-13T11:44:26.784Z,64.90
2018-12-13T11:46:55.371Z,78.28
2018-12-13T11:49:23.962Z,66.77
2018-12-13T11:51:52.588Z,68.87
2018-12-13T11:54:43.567Z,65.05
2018-12-13T11:57:12.933Z,69.45
2018-12-13T11:59:41.586Z,77.32
2018-12-13T12:02:10.209Z,75.37
2018-12-13T12:04:38.824Z,81.30
2018-12-13T12:07:07.431Z,73.30
2018-12-13T12:09:36.040Z,75.17
2018-12-13T12:12:04.692Z,72.08
2018-12-13T12:14:33.295Z,77.62
2018-12-13T12:17:01.914Z,62.40
2018-12-13T12:19:30.537Z,65.15
2018-12-13T12:21:59.194Z,69.87
2018-12-13T12:24:27.789Z,65.75
2018-12-13T12:26:56.383Z,63.08
2018-12-13T12:29:25.000Z,68.07
2018-12-13T12:31:53.718Z,66.17
2018-12-13T12:34:22.340Z,77.85
2018-12-13T12:36:50.946Z,71.90
2018-12-13T12:39:19.547Z,69.80
2018-12-13T12:41:48.138Z,72.82
2018-12-13T12:44:16.735Z,81.80
2018-12-13T12:46:45.367Z,71.82
2018-12-13T12:49:13.962Z,81.40
2018-12-13T12:51:42.568Z,80.57
2018-12-13T12:54:11.171Z,85.17
2018-12-13T12:56:39.775Z,81.90
2018-12-13T12:59:08.382Z,83.15
2018-12-13T13:01:37.008Z,92.10
2018-12-13T13:04:05.631Z,91.45
2018-12-13T13:06:34.237Z,98.10
2018-12-13T13:09:03.701Z,105.63
2018-12-13T13:11:32.304Z,106.63
2018-12-13T13:14:00.924Z,98.07
2018-12-13T13:16:29.575Z,104.20
2018-12-13T13:18:58.212Z,102.35
2018-12-13T13:21:26.802Z,97.33
2018-12-13T13:23:55.430Z,100.15
2018-12-13T13:26:24.051Z,104.23
2018-12-13T13:28:53.235Z,100.53
2018-12-13T13:31:21.835Z,97.08
2018-12-13T13:33:50.514Z,101.15
2018-12-13T13:36:19.111Z,89.42
2018-12-13T13:38:47.732Z,90.40
2018-12-13T13:41:16.377Z,85.67
2018-12-13T13:43:44.972Z,91.80
2018-12-13T13:46:13.556Z,83.62
2018-12-13T13:48:42.137Z,88.58
2018-12-13T13:51:10.719Z,94.80
2018-12-13T13:53:39.427Z,88.75
2018-12-13T13:56:08.103Z,87.10
2018-12-13T13:58:37.105Z,85.62
2018-12-13T14:01:05.698Z,78.47
2018-12-13T14:03:34.311Z,89.62
2018-12-13T14:06:03.050Z,82.85
2018-12-13T14:08:31.570Z,92.67
2018-12-13T14:11:00.106Z,83.00
2018-12-13T14:13:28.644Z,84.40
2018-12-13T14:15:57.160Z,85.80
2018-12-13T14:18:25.719Z,77.40
2018-12-13T14:20:54.284Z,101.20
2018-12-13T14:23:23.052Z,92.75
2018-12-13T14:25:51.572Z,97.08
2018-12-13T14:28:20.101Z,91.00
2018-12-13T14:30:48.650Z,111.88
2018-12-13T14:33:17.299Z,96.08
2018-12-13T14:35:45.822Z,98.72
2018-12-13T14:38:14.381Z,91.90
2018-12-13T14:40:42.902Z,96.63
2018-12-13T14:43:11.607Z,88.52
2018-12-13T14:45:40.139Z,92.02
2018-12-13T14:48:09.126Z,90.32
2018-12-13T14:50:37.878Z,98.50
2018-12-13T14:53:06.471Z,91.55
2018-12-13T14:55:35.066Z,108.20
2018-12-13T14:58:03.659Z,135.35
2018-12-13T15:00:32.212Z,93.78
2018-12-13T15:03:00.996Z,79.87
2018-12-13T15:05:29.666Z,97.08
2018-12-13T15:07:58.223Z,104.27
2018-12-13T15:10:26.947Z,101.87
2018-12-13T15:12:55.487Z,117.30
2018-12-13T15:15:24.052Z,121.05
2018-12-13T15:17:52.676Z,118.67
2018-12-13T15:20:21.206Z,111.88
2018-12-13T15:22:49.847Z,124.35
2018-12-13T15:25:18.459Z,109.85
2018-12-13T15:27:47.070Z,121.77
2018-12-13T15:30:15.727Z,107.47
2018-12-13T15:32:44.264Z,104.45
2018-12-13T15:35:12.814Z,110.25
2018-12-13T15:37:41.357Z,119.15
2018-12-13T15:40:09.912Z,114.30
2018-12-13T15:42:38.430Z,98.37
2018-12-13T15:45:08.273Z,97.20
2018-12-13T15:47:36.975Z,121.55
2018-12-13T15:50:06.265Z,97.30
2018-12-13T15:52:34.930Z,95.53
2018-12-13T15:55:03.776Z,106.20
2018-12-13T15:57:32.440Z,105.27
2018-12-13T16:00:00.988Z,104.60
2018-12-13T16:02:29.576Z,93.30
2018-12-13T16:04:58.128Z,94.00
2018-12-13T16:07:26.807Z,96.10
2018-12-13T16:09:55.344Z,91.42
2018-12-13T16:12:23.867Z,88.10
2018-12-13T16:14:52.531Z,85.03
2018-12-13T16:17:21.051Z,93.87
2018-12-13T16:19:49.578Z,95.00
2018-12-13T16:22:18.137Z,86.87
2018-12-13T16:24:46.662Z,91.15
2018-12-13T16:27:15.303Z,87.33
2018-12-13T16:29:43.843Z,90.20
2018-12-13T16:32:12.386Z,77.10
2018-12-13T16:34:40.910Z,90.38
2018-12-13T16:37:09.475Z,91.55
2018-12-13T16:39:38.023Z,89.85
2018-12-13T16:42:06.574Z,90.10
2018-12-13T16:44:35.099Z,90.03
2018-12-13T16:47:03.687Z,89.52
2018-12-13T16:49:32.217Z,89.83
2018-12-13T16:52:00.747Z,87.57
2018-12-13T16:54:29.336Z,89.90
2018-12-13T16:56:57.908Z,86.85
2018-12-13T16:59:27.511Z,85.65
2018-12-13T17:01:56.102Z,84.17
2018-12-13T17:04:24.653Z,74.40
2018-12-13T17:06:53.354Z,84.55
2018-12-13T17:09:21.899Z,82.70
2018-12-13T17:11:50.496Z,88.50
2018-12-13T17:14:19.049Z,75.90
2018-12-13T17:16:47.603Z,82.67
2018-12-13T17:19:16.155Z,77.30
2018-12-13T17:21:44.768Z,77.67
2018-12-13T17:24:13.396Z,82.95
2018-12-13T17:26:41.936Z,90.62
2018-12-13T17:29:10.476Z,79.37
2018-12-13T17:31:39.112Z,86.65
2018-12-13T17:34:07.657Z,79.45
2018-12-13T17:36:36.249Z,79.95
2018-12-13T17:39:06.743Z,79.85
2018-12-13T17:41:35.287Z,77.10
2018-12-13T17:44:03.996Z,81.55
2018-12-13T17:46:32.548Z,79.53
2018-12-13T17:49:01.095Z,74.85
2018-12-13T17:51:30.899Z,81.20
2018-12-13T17:53:59.656Z,73.45
2018-12-13T17:56:28.239Z,70.97
2018-12-13T17:58:56.820Z,83.52
2018-12-13T18:01:25.377Z,82.75
2018-12-13T18:03:54.045Z,81.17
2018-12-13T18:06:22.584Z,80.25
2018-12-13T18:08:51.116Z,89.55
2018-12-13T18:11:19.960Z,81.30
2018-12-13T18:13:48.515Z,75.70
2018-12-13T18:16:17.043Z,73.65
2018-12-13T18:18:45.591Z,69.30
2018-12-13T18:21:14.104Z,76.50
2018-12-13T18:23:42.721Z,82.70
2018-12-13T18:26:11.294Z,75.62
2018-12-13T18:28:39.838Z,68.52
2018-12-13T18:31:08.400Z,77.03
2018-12-13T18:33:36.923Z,74.40
2018-12-13T18:36:05.598Z,75.17
2018-12-13T18:38:34.140Z,71.28
2018-12-13T18:41:02.791Z,79.45
2018-12-13T18:43:31.355Z,83.82
2018-12-13T18:45:59.910Z,69.65
2018-12-13T18:48:28.465Z,75.00
2018-12-13T18:50:57.002Z,69.07
2018-12-13T18:53:25.538Z,67.75
2018-12-13T18:55:54.087Z,73.75
2018-12-13T18:58:22.625Z,74.47
2018-12-13T19:00:51.199Z,65.72
2018-12-13T19:03:19.743Z,64.37
2018-12-13T19:05:48.348Z,73.75
2018-12-13T19:08:16.900Z,73.95
2018-12-13T19:10:45.959Z,70.83
2018-12-13T19:13:15.436Z,67.25
2018-12-13T19:15:44.845Z,71.85
2018-12-13T19:18:13.457Z,69.42
2018-12-13T19:20:42.011Z,72.00
2018-12-13T19:23:10.592Z,69.42
2018-12-13T19:25:39.164Z,67.95
2018-12-13T19:28:07.728Z,67.62
2018-12-13T19:30:36.270Z,70.65
2018-12-13T19:33:04.830Z,62.38
2018-12-13T19:35:33.387Z,61.60
2018-12-13T19:38:01.931Z,65.47
2018-12-13T19:40:30.472Z,78.90
2018-12-13T19:42:59.035Z,57.95
2018-12-13T19:45:27.681Z,66.90
2018-12-13T19:47:56.224Z,57.40
2018-12-13T19:50:25.020Z,65.32
2018-12-13T19:52:57.869Z,63.95
2018-12-13T19:55:26.435Z,58.80
2018-12-13T19:57:55.027Z,53.80
2018-12-13T20:00:24.537Z,58.23
2018-12-13T20:02:53.075Z,60.80
2018-12-13T20:05:21.655Z,56.85
2018-12-13T20:07:50.197Z,63.42
2018-12-13T20:10:18.735Z,53.40
2018-12-13T20:12:47.371Z,63.08
2018-12-13T20:15:15.905Z,66.28
2018-12-13T20:17:44.575Z,61.85
2018-12-13T20:20:13.175Z,65.08
2018-12-13T20:22:41.757Z,55.35
2018-12-13T20:25:11.864Z,57.75
2018-12-13T20:27:40.424Z,57.25
2018-12-13T20:30:09.611Z,63.25
2018-12-13T20:32:38.168Z,59.58
2018-12-13T20:35:07.427Z,59.48
2018-12-13T20:37:36.011Z,68.28
2018-12-13T20:40:04.908Z,71.40
2018-12-13T20:42:33.488Z,61.37
2018-12-13T20:45:02.222Z,64.17
2018-12-13T20:47:30.791Z,68.22
2018-12-13T20:49:59.344Z,63.98
2018-12-13T20:52:27.911Z,67.20
2018-12-13T20:54:56.507Z,65.05
2018-12-13T20:57:25.038Z,65.28
2018-12-13T20:59:53.576Z,67.27
2018-12-13T21:02:22.115Z,68.95
2018-12-13T21:04:50.643Z,67.03
2018-12-13T21:07:24.455Z,61.13
2018-12-13T21:09:53.438Z,64.45
2018-12-13T21:12:21.982Z,65.30
2018-12-13T21:14:50.756Z,72.08
2018-12-13T21:17:19.315Z,66.25
2018-12-13T21:19:47.936Z,70.95
2018-12-13T21:22:16.487Z,64.35
2018-12-13T21:24:45.055Z,61.48
2018-12-13T21:27:13.583Z,54.55
2018-12-13T21:29:42.110Z,61.10
2018-12-13T21:32:10.646Z,55.63
2018-12-13T21:34:39.199Z,57.33
2018-12-13T21:37:07.729Z,54.88
2018-12-13T21:39:36.283Z,57.33
2018-12-13T21:42:04.807Z,61.48
2018-12-13T21:44:33.351Z,59.20
2018-12-13T21:47:01.902Z,57.62
2018-12-13T21:49:30.434Z,52.80
2018-12-13T21:51:59.071Z,56.15
2018-12-13T21:54:27.612Z,53.15
2018-12-13T21:56:56.383Z,56.92
2018-12-13T21:59:24.964Z,53.98
2018-12-13T22:01:53.511Z,56.50
2018-12-13T22:04:22.058Z,58.25
2018-12-13T22:06:50.630Z,55.45
2018-12-13T22:09:19.234Z,51.73
2018-12-13T22:11:47.865Z,54.98
2018-12-13T22:14:17.648Z,56.75
2018-12-13T22:16:46.219Z,47.55
2018-12-13T22:19:14.771Z,47.08
2018-12-13T22:21:43.336Z,53.75
2018-12-13T22:24:12.021Z,65.97
2018-12-13T22:26:40.640Z,63.42
2018-12-13T22:29:09.229Z,58.08
2018-12-13T22:31:37.871Z,50.90
2018-12-13T22:34:06.507Z,55.20
2018-12-13T22:36:35.814Z,54.60
2018-12-13T22:39:06.539Z,55.30
2018-12-13T22:41:35.257Z,52.33
2018-12-13T22:44:03.819Z,57.23
2018-12-13T22:46:32.535Z,56.20
2018-12-13T22:49:01.101Z,64.37
2018-12-13T22:51:29.658Z,57.43
2018-12-13T22:53:58.218Z,55.45
2018-12-13T22:56:26.875Z,60.55
2018-12-13T22:58:55.499Z,62.95
2018-12-13T23:01:24.911Z,56.75
2018-12-13T23:03:53.463Z,58.17
2018-12-13T23:06:22.042Z,62.30
2018-12-13T23:08:50.613Z,54.95
2018-12-13T23:11:19.222Z,61.55
2018-12-13T23:13:47.789Z,54.03
2018-12-13T23:16:16.392Z,54.63
2018-12-13T23:18:44.923Z,47.53
2018-12-13T23:21:13.520Z,45.40
2018-12-13T23:23:42.130Z,48.60
2018-12-13T23:26:10.678Z,49.85
2018-12-13T23:28:39.232Z,55.43
2018-12-13T23:31:07.800Z,51.08
2018-12-13T23:33:36.374Z,49.58
2018-12-13T23:36:05.107Z,45.40
2018-12-13T23:38:33.687Z,50.10
2018-12-13T23:41:02.231Z,55.43
2018-12-13T23:43:30.791Z,48.68
2018-12-13T23:45:59.382Z,53.83
2018-12-13T23:48:28.263Z,61.83
2018-12-13T23:50:56.820Z,66.17
2018-12-13T23:53:25.615Z,69.72
2018-12-13T23:55:54.508Z,85.70
2018-12-13T23:58:23.348Z,69.85
